Create Custom Reports and Graphics: Custom Report

Modesto Jr College

Current Conditions

12/16/18 3:45 PM (-08:00)
Updated Every 15 Minutes
Temp 57.6 °F   0.5
RH 62 %   2
Dew Pt 44.9 °F   0.3
Wind Spd 3.1 mph
Wind Dir ESE | 121 °
Wind Gust 7.2 mph   1.1
Latest Rain 0.00 In
Daily Rain 0.00 In
Daily Min Temp 43.2 °F   8.8
Daily Max Temp 58.9 °F   3.3

Last 24 Hours

Modesto Jr College

15 Minute Data | America/Los_Angeles
as of 12/16/18 4:00 PM PST
Date Time Temp (°F) RH (%) Dew Pt (°F) Wind Spd (mph) Wind Dir (°) Wind Gust (mph) Latest Rain (In) Daily Rain (In) Daily Min Temp (°F) Daily Max Temp (°F) Day
12/16/18 1545 57.6 62 44.9 3.1 ESE | 121 7.2 0.00 0.00 43.2 58.9 12/16/18
12/16/18 1530 57.9 62 44.8 4.1 SE | 136 9.6 0.00 0.00 43.2 58.9 12/16/18
12/16/18 1515 58.0 61 44.8 4.6 SE | 133 8.8 0.00 0.00 43.2 58.9 12/16/18
12/16/18 1500 58.1 61 44.7 4.9 ESE | 120 11.2 0.00 0.00 43.2 58.9 12/16/18
12/16/18 1445 58.2 60 44.6 5.8 SE | 124 13.2 0.00 0.00 43.2 58.9 12/16/18
12/16/18 1430 58.4 60 44.6 6.2 ESE | 119 11.4 0.00 0.00 43.2 58.9 12/16/18
12/16/18 1415 58.7 60 44.9 7.5 SE | 124 14.0 0.00 0.00 43.2 58.9 12/16/18
12/16/18 1400 58.6 63 45.9 6.6 ESE | 113 16.0 0.00 0.00 43.2 58.8 12/16/18
12/16/18 1345 58.0 64 46.0 4.6 SE | 124 9.6 0.00 0.00 43.2 58.3 12/16/18
12/16/18 1330 57.6 64 45.5 6.6 ESE | 112 11.8 0.00 0.00 43.2 58.0 12/16/18
12/16/18 1315 57.1 64 44.9 6.4 ESE | 104 10.5 0.00 0.00 43.2 57.4 12/16/18
12/16/18 1300 56.8 63 44.2 5.3 ESE | 109 9.9 0.00 0.00 43.2 57.4 12/16/18
12/16/18 1245 56.8 62 43.8 4.7 E | 100 7.5 0.00 0.00 43.2 57.4 12/16/18
12/16/18 1230 57.1 59 42.9 4.2 ESE | 105 8.1 0.00 0.00 43.2 57.4 12/16/18
12/16/18 1215 57.1 58 42.6 4.8 ESE | 114 12.9 0.00 0.00 43.2 57.4 12/16/18
12/16/18 1200 57.0 59 42.8 5.6 ESE | 123 10.1 0.00 0.00 43.2 57.3 12/16/18
12/16/18 1145 57.0 59 42.9 5.8 SE | 132 11.2 0.00 0.00 43.2 57.3 12/16/18
12/16/18 1130 57.0 60 43.5 6.1 ESE | 123 11.8 0.00 0.00 43.2 57.3 12/16/18
12/16/18 1115 56.5 61 43.3 6.2 SE | 137 12.3 0.00 0.00 43.2 57.1 12/16/18
12/16/18 1100 56.1 63 43.9 6.9 SE | 134 12.5 0.00 0.00 43.2 56.6 12/16/18
12/16/18 1045 56.3 64 44.5 6.7 SE | 134 15.6 0.00 0.00 43.2 56.6 12/16/18
12/16/18 1030 55.7 67 45.0 6.7 SE | 126 14.2 0.00 0.00 43.2 56.4 12/16/18
12/16/18 1015 54.7 71 45.4 7.0 ESE | 115 12.7 0.00 0.00 43.2 55.5 12/16/18
12/16/18 1000 53.2 74 45.0 6.4 ESE | 119 13.4 0.00 0.00 43.2 53.9 12/16/18
12/16/18 0945 52.9 75 45.2 7.6 SE | 132 14.0 0.00 0.00 43.2 53.5 12/16/18
12/16/18 0930 50.9 80 45.1 5.7 SE | 145 9.9 0.00 0.00 43.2 52.4 12/16/18
12/16/18 0915 49.1 83 44.2 4.7 SE | 138 8.8 0.00 0.00 43.2 50.0 12/16/18
12/16/18 0900 48.1 84 43.5 4.8 SE | 134 9.0 0.00 0.00 43.2 48.6 12/16/18
12/16/18 0845 46.2 88 42.8 5.5 SE | 127 10.1 0.00 0.00 43.2 48.2 12/16/18
12/16/18 0830 45.2 89 42.0 5.6 SE | 128 10.5 0.00 0.00 43.2 48.2 12/16/18
12/16/18 0815 44.9 87 41.4 4.1 SSE | 156 8.1 0.00 0.00 43.2 48.2 12/16/18
12/16/18 0800 45.2 85 40.9 4.0 SSE | 164 6.8 0.00 0.00 43.2 48.2 12/16/18
12/16/18 0745 45.1 83 40.3 4.4 SSE | 147 7.9 0.00 0.00 43.2 48.2 12/16/18
12/16/18 0730 45.0 82 39.9 3.9 SE | 144 7.2 0.00 0.00 43.2 48.2 12/16/18
12/16/18 0715 45.2 81 39.6 4.2 SE | 137 7.5 0.00 0.00 43.2 48.2 12/16/18
12/16/18 0700 45.0 81 39.6 4.8 SE | 132 8.8 0.00 0.00 43.2 48.2 12/16/18
12/16/18 0645 44.7 83 39.8 5.0 SE | 134 8.3 0.00 0.00 43.2 48.2 12/16/18
12/16/18 0630 44.8 83 40.0 4.0 SE | 139 8.1 0.00 0.00 43.2 48.2 12/16/18
12/16/18 0615 44.8 84 40.1 4.4 SE | 130 7.7 0.00 0.00 43.2 48.2 12/16/18
12/16/18 0600 44.3 86 40.3 5.8 SE | 124 11.8 0.00 0.00 43.2 48.2 12/16/18
12/16/18 0545 43.6 88 40.2 4.4 SE | 126 9.2 0.00 0.00 43.2 48.2 12/16/18
12/16/18 0530 43.7 88 40.4 4.4 SE | 141 8.3 0.00 0.00 43.2 48.2 12/16/18
12/16/18 0515 43.3 88 40.2 3.9 SE | 136 7.9 0.00 0.00 43.2 48.2 12/16/18
12/16/18 0500 43.6 87 40.0 3.3 SE | 132 5.3 0.00 0.00 43.3 48.2 12/16/18
12/16/18 0445 44.2 85 40.1 3.0 SE | 140 5.3 0.00 0.00 43.7 48.2 12/16/18
12/16/18 0430 44.8 84 40.1 2.9 SE | 133 5.9 0.00 0.00 44.4 48.2 12/16/18
12/16/18 0415 45.6 82 40.4 2.8 SE | 135 4.8 0.00 0.00 44.6 48.2 12/16/18
12/16/18 0400 46.7 80 40.8 2.5 SSE | 150 4.6 0.00 0.00 44.6 48.2 12/16/18
12/16/18 0345 47.4 79 41.4 2.6 SE | 131 5.0 0.00 0.00 44.6 48.2 12/16/18
12/16/18 0330 47.2 81 41.6 4.7 ESE | 103 8.6 0.00 0.00 44.6 48.2 12/16/18
12/16/18 0315 47.0 82 41.8 4.1 E | 91 7.5 0.00 0.00 44.6 48.2 12/16/18
12/16/18 0300 47.4 82 42.2 4.4 E | 101 8.3 0.00 0.00 44.6 48.2 12/16/18
12/16/18 0245 47.8 82 42.5 5.9 E | 100 11.2 0.00 0.00 44.6 48.2 12/16/18
12/16/18 0230 47.7 83 42.9 6.1 ESE | 105 10.7 0.00 0.00 44.6 48.0 12/16/18
12/16/18 0215 46.6 87 42.9 4.8 E | 100 8.6 0.00 0.00 44.6 47.6 12/16/18
12/16/18 0200 45.7 90 42.8 4.0 E | 96 6.8 0.00 0.00 44.6 47.2 12/16/18
12/16/18 0145 45.2 92 43.0 4.6 E | 88 7.7 0.00 0.00 44.6 47.2 12/16/18
12/16/18 0130 44.9 92 42.9 4.9 E | 86 6.8 0.00 0.00 44.6 47.2 12/16/18
12/16/18 0115 44.9 92 42.7 4.4 E | 80 5.9 0.00 0.00 44.6 47.2 12/16/18
12/16/18 0100 45.1 91 42.7 3.7 E | 86 5.0 0.00 0.00 44.8 47.2 12/16/18
12/16/18 0045 45.9 90 43.1 3.0 E | 94 4.6 0.00 0.00 45.2 47.2 12/16/18
12/16/18 0030 46.6 89 43.6 2.8 ESE | 115 5.0 0.00 0.00 46.2 47.2 12/16/18
12/16/18 0015 47.0 89 44.0 3.4 SE | 128 5.9 0.00 0.00 46.8 47.2 12/16/18
12/16/18 0000 47.0 89 44.1 3.6 SE | 131 6.1 0.00 0.00 34.4 62.2 12/15/18
12/15/18 2345 46.6 90 43.8 3.6 SE | 130 6.6 0.00 0.00 34.4 62.2 12/15/18
12/15/18 2330 46.4 90 43.5 3.3 ESE | 121 6.1 0.00 0.00 34.4 62.2 12/15/18
12/15/18 2315 46.2 90 43.4 3.1 SE | 133 5.5 0.00 0.00 34.4 62.2 12/15/18
12/15/18 2300 46.2 90 43.3 3.0 SSE | 153 5.5 0.00 0.00 34.4 62.2 12/15/18
12/15/18 2245 45.4 89 42.4 2.9 SSE | 158 5.0 0.00 0.00 34.4 62.2 12/15/18
12/15/18 2230 45.1 83 40.4 2.3 SW | 222 3.7 0.00 0.00 34.4 62.2 12/15/18
12/15/18 2215 49.6 80 43.6 2.0 SSE | 166 4.4 0.00 0.00 34.4 62.2 12/15/18
12/15/18 2200 50.6 79 44.4 2.0 SE | 143 3.9 0.00 0.00 34.4 62.2 12/15/18
12/15/18 2145 51.2 78 44.6 2.6 ESE | 117 6.4 0.00 0.00 34.4 62.2 12/15/18
12/15/18 2130 51.1 78 44.7 3.4 ESE | 115 6.1 0.00 0.00 34.4 62.2 12/15/18
12/15/18 2115 50.8 79 44.6 4.8 E | 100 8.1 0.00 0.00 34.4 62.2 12/15/18
12/15/18 2100 51.3 78 44.6 4.2 E | 98 6.8 0.00 0.00 34.4 62.2 12/15/18
12/15/18 2045 52.0 76 44.7 3.9 ESE | 104 7.2 0.00 0.00 34.4 62.2 12/15/18
12/15/18 2030 52.2 76 44.9 4.3 ESE | 104 7.7 0.00 0.00 34.4 62.2 12/15/18
12/15/18 2015 51.9 76 44.8 4.6 E | 98 7.2 0.00 0.00 34.4 62.2 12/15/18
12/15/18 2000 50.4 79 44.1 3.3 E | 101 6.4 0.00 0.00 34.4 62.2 12/15/18
12/15/18 1945 51.4 73 43.1 0.1 ENE | 76 2.2 0.00 0.00 34.4 62.2 12/15/18
12/15/18 1930 53.4 71 44.4 1.9 ESE | 108 3.7 0.00 0.00 34.4 62.2 12/15/18
12/15/18 1915 53.8 71 44.6 2.8 ESE | 107 5.0 0.00 0.00 34.4 62.2 12/15/18
12/15/18 1900 53.7 72 44.8 4.0 ESE | 103 6.8 0.00 0.00 34.4 62.2 12/15/18
12/15/18 1845 53.6 73 45.1 3.3 ESE | 107 7.0 0.00 0.00 34.4 62.2 12/15/18
12/15/18 1830 53.3 74 45.4 2.9 E | 94 4.8 0.00 0.00 34.4 62.2 12/15/18
12/15/18 1815 52.3 77 45.2 2.8 E | 88 5.7 0.00 0.00 34.4 62.2 12/15/18
12/15/18 1800 53.7 72 45.0 1.2 ENE | 73 2.2 0.00 0.00 34.4 62.2 12/15/18
12/15/18 1745 54.6 72 45.6 2.3 ENE | 60 3.9 0.00 0.00 34.4 62.2 12/15/18
12/15/18 1730 55.2 71 46.0 3.0 E | 84 5.9 0.00 0.00 34.4 62.2 12/15/18
12/15/18 1715 55.9 70 46.4 2.6 E | 95 3.9 0.00 0.00 34.4 62.2 12/15/18
12/15/18 1700 55.8 70 46.0 2.7 ESE | 109 5.0 0.00 0.00 34.4 62.2 12/15/18
12/15/18 1645 55.4 69 45.5 0.9 ESE | 108 2.6 0.00 0.00 34.4 62.2 12/15/18
12/15/18 1630 57.1 64 45.1 1.0 WSW | 242 3.5 0.00 0.00 34.4 62.2 12/15/18
12/15/18 1615 57.7 62 44.7 2.3 S | 171 5.0 0.00 0.00 34.4 62.2 12/15/18
12/15/18 1600 57.9 61 44.5 3.5 SE | 146 7.2 0.00 0.00 34.4 62.2 12/15/18

Last 7 Days

Modesto Jr College

Daily Data | America/Los_Angeles
as of 12/16/18 4:00 PM PST
Date Daily ETo (in)
12/15/18 0.05
12/14/18 0.03
12/13/18 0.05
12/12/18 0.05
12/11/18 0.05
12/10/18 0.02
12/9/18 0.02